KPAE

Snohomish County (Paine Field) Airport

Everett, Washington, USA
METAR KPAE 181353Z AUTO 15020G24KT 10SM FEW025 BKN110 07/04 A3005 RMK AO2 PK WND 14027/1321 SLP179 T00720044
Observed Flight Rules
Jan-18 @ 13:53 UTC (19 minutes ago) Visual Flight Rules
Wind Visibility Clouds
150° at 20 knots
 Gusting to 24 knots
10 miles
  • Few at 2,500' AGL
  • Broken at 11,000' AGL
Temperatures Readings
Current 7°C / 45°F
Dewpoint 4°C / 39°F
Humidity 81%
Altimeter 30.05" Hg
Pressure 1017.9 hPa
Elevation 180
METAR KPAE 181353Z AUTO 15020G24KT 10SM FEW025 BKN110 07/04 A3005 RMK AO2 PK WND 14027/1321 SLP179 T00720044
Observed Flight Rules
Jan-18 @ 13:53 UTC
(19 minutes ago)
VFR
Wind Visibility
150° at 20 knots
 Gusting to 24 knots
10 miles
Clouds
  • Few at 2,500' AGL
  • Broken at 11,000' AGL
Temperature Dewpoint
7°C / 45°F 4°C / 39°F
Humidity Altimeter Pressure
81% 30.05" Hg 1017.9 hPa